Latest Coastal Weather Observations for Devonport Airport

IDT60701

Issued at 9:32 am EST Tuesday 30 August 2016 (issued every 10 minutes, with the page automatically refreshed every 10 minutes)

About coastal observations | Map of coastal stations | Coastal observations for TAS | Marine services | Other Formats
Station Details ID: 091126 Name: DEVONPORT AIRPORT Lat: -41.17 Lon: 146.43 Height: 8.0 m
Data from the previous 72 hours. | See also: Recent months at Devonport Airport
Date/Time
EST
Temp
°C
Wind Pressure Rain since
9am
mm
Weather Cloud Vis
km
Sea
Height
m
Swell
Dir  Spd
kts
Gust
kts
hPa Trend Height
m
Period
s
Dir
30/09:00am 8.1 S 11 14 1023.4 - 0.0 - Cloudy 10 - - - -
30/08:30am 6.6 S 11 14 1023.8 - 0.0 - - 10 - - - -
30/08:00am 6.4 S 11 14 1024.2 - 0.0 - - 10 - - - -
30/07:30am 4.8 S 11 13 1024.1 - 0.0 - - 10 - - - -
30/07:00am 4.1 SSE 12 15 1024.1 - 0.0 - - 10 - - - -
30/06:30am 4.7 SSE 9 13 1024.0 - 0.0 - - 10 - - - -
30/06:00am 4.5 SSE 10 13 1024.2 - 0.0 - - 10 - - - -
30/05:30am 4.7 SSE 11 12 1024.5 - 0.0 - Partly cloudy 10 - - - -
30/05:25am 4.8 SSE 10 12 1024.5 - 0.0 - Partly cloudy 10 - - - -
30/05:00am 4.6 SSE 9 11 1024.6 - 0.0 - Cloudy 10 - - - -
30/04:45am 4.5 S 7 8 1024.7 - 0.0 - Partly cloudy 10 - - - -
30/04:30am 4.5 S 7 9 1024.7 - 0.0 - Partly cloudy 10 - - - -
30/04:00am 4.3 S 8 9 1024.6 - 0.0 - Partly cloudy 10 - - - -
30/03:41am 4.5 S 8 9 1024.3 - 0.0 - Partly cloudy 10 - - - -
30/03:30am 4.9 SSE 9 11 1024.1 - 0.0 - Partly cloudy 10 - - - -
30/03:00am 5.1 S 8 10 1024.0 - 0.0 - Cloudy 10 - - - -
30/02:30am 4.6 S 7 8 1024.2 - 0.0 - Partly cloudy 10 - - - -
30/02:28am 4.5 S 7 8 1024.2 - 0.0 - Partly cloudy 10 - - - -
30/02:00am 4.6 S 8 11 1024.4 - 0.0 - - 10 - - - -
30/01:30am 4.3 SSE 9 12 1024.5 - 0.0 - - 10 - - - -
30/01:00am 4.4 S 8 9 1025.1 - 0.0 - - 10 - - - -
30/12:30am 5.0 S 8 9 1025.5 - 0.0 - - 10 - - - -
30/12:00am 4.7 S 8 9 1025.5 - 0.0 - - 10 - - - -
 
Date/Time
EST
Temp
°C
Wind Pressure Rain since
9am
mm
Weather Cloud Vis
km
Sea
Height
m
Swell
Dir  Spd
kts
Gust
kts
hPa Trend Height
m
Period
s
Dir
29/11:30pm 5.1 S 8 9 1025.5 - 0.0 - - 10 - - - -
29/11:00pm 5.3 SSE 8 9 1025.6 - 0.0 - - 10 - - - -
29/10:30pm 5.0 S 7 9 1025.5 - 0.0 - - 10 - - - -
29/10:00pm 5.1 SSE 7 8 1025.6 - 0.0 - - 10 - - - -
29/09:30pm 5.7 SSE 7 8 1025.3 - 0.0 - - 10 - - - -
29/09:00pm 5.2 SSE 7 8 1025.2 - 0.0 - - 10 - - - -
29/08:30pm 5.4 SSE 6 7 1024.9 - 0.0 - - 10 - - - -
29/08:00pm 5.9 SSE 5 7 1024.9 - 0.0 - - 10 - - - -
29/07:30pm 5.8 SSE 5 6 1024.6 - 0.0 - - 10 - - - -
29/07:00pm 6.6 CALM 0 0 1024.5 - 0.0 - - 10 - - - -
29/06:30pm 7.8 CALM 0 0 1024.6 - 0.0 - - 10 - - - -
29/06:00pm 8.9 CALM 0 0 1024.2 - 0.0 - - 10 - - - -
29/05:30pm 9.8 NNE 3 4 1023.9 - 0.0 - - 10 - - - -
29/05:00pm 10.5 N 3 4 1023.9 - 0.0 - - 10 - - - -
29/04:30pm 10.5 N 5 6 1023.8 - 0.0 - - 10 - - - -
29/04:00pm 10.5 NNW 6 7 1023.7 - 0.0 - - 10 - - - -
29/03:30pm 10.3 NNW 6 8 1023.5 - 0.0 - - 10 - - - -
29/03:00pm 10.5 NNW 5 7 1023.5 - 0.0 - Mostly clear 10 - - - -
29/02:30pm 10.6 NNW 5 7 1023.7 - 0.0 - - 10 - - - -
29/02:00pm 10.0 NNW 7 9 1023.8 - 0.0 - - 10 - - - -
29/01:30pm 10.5 NNW 7 10 1024.0 - 0.0 - - 10 - - - -
29/01:00pm 10.3 N 9 10 1024.3 - 0.0 - - 10 - - - -
29/12:30pm 9.9 N 7 8 1024.3 - 0.0 - - 10 - - - -
29/12:00pm 9.7 N 7 9 1024.6 - 0.0 - Cloudy 10 - - - -
29/11:30am 10.1 SE 3 6 1024.7 - 0.0 - - 10 - - - -
29/11:00am 9.4 SSE 4 6 1024.8 - 0.0 - - 10 - - - -
29/10:30am 8.8 SSE 4 5 1025.2 - 0.0 - - 10 - - - -
29/10:00am 8.8 SSE 5 7 1025.5 - 0.0 - - 10 - - - -
29/09:30am 7.0 S 7 8 1025.4 - 0.0 - - 10 - - - -
29/09:00am 6.1 SSE 10 13 1025.2 - 0.0 - - 10 - - - -
29/08:30am 5.3 SSE 10 12 1025.2 - 0.0 - - 10 - - - -
29/08:00am 3.7 S 8 10 1025.0 - 0.0 - - 10 - - - -
29/07:30am 2.3 S 8 10 1024.7 - 0.0 - - 10 - - - -
29/07:00am 1.6 S 9 10 1024.2 - 0.0 - - 10 - - - -
29/06:30am 1.0 S 9 11 1023.6 - 0.0 - - 10 - - - -
29/06:00am 1.0 S 8 9 1023.5 - 0.0 - - 10 - - - -
29/05:30am 0.8 S 5 6 1023.3 - 0.0 - - 10 - - - -
29/05:00am 0.7 SSW 5 7 1023.0 - 0.0 - - 10 - - - -
29/04:30am 1.3 W 5 6 1022.8 - 0.0 - - 10 - - - -
29/04:00am 1.7 S 5 8 1022.2 - 0.0 - - 10 - - - -
29/03:30am 2.3 S 9 11 1021.9 - 0.0 - - 10 - - - -
29/03:00am 2.7 S 8 10 1022.3 - 0.0 - - 10 - - - -
29/02:30am 2.7 S 6 7 1022.3 - 0.0 - - 10 - - - -
29/02:00am 1.6 S 3 5 1022.5 - 0.0 - - 10 - - - -
29/01:30am 2.6 S 3 5 1022.6 - 0.0 - - 10 - - - -
29/01:00am 3.0 S 6 7 1022.1 - 0.0 - - 10 - - - -
29/12:30am 2.3 S 6 9 1022.0 - 0.0 - - 10 - - - -
29/12:00am 3.2 SW 4 6 1021.7 - 0.0 - - 10 - - - -
 
Date/Time
EST
Temp
°C
Wind Pressure Rain since
9am
mm
Weather Cloud Vis
km
Sea
Height
m
Swell
Dir  Spd
kts
Gust
kts
hPa Trend Height
m
Period
s
Dir
28/11:30pm 3.3 S 5 6 1021.6 - 0.0 - - 10 - - - -
28/11:00pm 3.5 SSW 7 8 1021.4 - 0.0 - - 10 - - - -
28/10:30pm 3.1 SSE 6 6 1021.2 - 0.0 - - 10 - - - -
28/10:00pm 5.0 WSW 5 8 1021.1 - 0.0 - - 10 - - - -
28/09:30pm 5.9 WSW 4 5 1021.0 - 0.0 - - 10 - - - -
28/09:00pm 5.9 SW 3 7 1020.7 - 0.0 - - 10 - - - -
28/08:30pm 5.0 WSW 5 6 1020.4 - 0.0 - - 10 - - - -
28/08:00pm 5.5 WSW 4 5 1019.9 - 0.0 - - 10 - - - -
28/07:30pm 8.4 SW 6 9 1019.7 - 0.0 - - 10 - - - -
28/07:00pm 8.5 SW 6 8 1019.6 - 0.0 - - 10 - - - -
28/06:30pm 7.7 WSW 7 8 1019.3 - 0.0 - - 10 - - - -
28/06:00pm 8.2 WSW 6 7 1019.0 - 0.0 - - 10 - - - -
28/05:30pm 10.0 W 10 13 1018.5 - 0.0 - - 10 - - - -
28/05:00pm 11.0 WNW 13 17 1018.2 - 0.0 - Partly cloudy 10 - - - -
28/04:30pm 11.2 WNW 13 17 1018.1 - 0.0 - Partly cloudy 10 - - - -
28/04:00pm 11.7 NW 13 16 1018.0 - 0.0 - Partly cloudy 10 - - - -
28/03:30pm 11.7 NW 10 13 1017.7 - 0.0 - Partly cloudy 10 - - - -
28/03:00pm 11.0 WNW 13 16 1017.9 - 0.0 - Partly cloudy 10 - - - -
28/02:30pm 11.4 WNW 7 11 1017.9 - 0.0 - Partly cloudy 10 - - - -
28/02:00pm 12.0 W 8 12 1017.9 - 0.0 - Partly cloudy 10 - - - -
28/01:30pm 11.4 WNW 7 10 1017.7 - 0.0 - Partly cloudy 10 - - - -
28/01:00pm 11.6 WSW 9 14 1017.8 - 0.0 - Partly cloudy 10 - - - -
28/12:30pm 11.3 WSW 7 11 1018.1 - 0.0 - Partly cloudy 10 - - - -
28/12:00pm 10.8 WSW 7 13 1018.4 - 0.0 - Mostly clear 10 - - - -
28/11:30am 10.6 SW 8 12 1018.3 - 0.0 - - 10 - - - -
28/11:00am 10.8 WSW 10 16 1018.5 - 0.0 - - 10 - - - -
28/10:30am 10.0 WSW 11 16 1018.5 - 0.0 - - 10 - - - -
28/10:00am 10.1 WSW 12 18 1018.4 - 0.0 - - 10 - - - -
28/09:30am 9.6 WSW 11 14 1018.1 - 0.0 - - 10 - - - -
28/09:00am 8.7 WSW 12 15 1017.7 - 12.0 - - 10 - - - -
28/08:30am 8.0 W 13 16 1017.3 - 12.0 - - 10 - - - -
28/08:00am 7.1 WSW 8 10 1016.9 - 12.0 - - 10 - - - -
28/07:30am 5.9 WSW 6 8 1016.3 - 12.0 - - 10 - - - -
28/07:00am 4.8 W 7 9 1015.6 - 12.0 - - 10 - - - -
28/06:30am 5.6 WSW 7 9 1014.8 - 12.0 - - 10 - - - -
28/06:00am 6.3 WSW 12 14 1014.1 - 12.0 - - 10 - - - -
28/05:30am 6.0 W 11 13 1013.4 - 12.0 - - 10 - - - -
28/05:00am 6.4 WSW 11 13 1012.9 - 12.0 - - 10 - - - -
28/04:30am 6.7 WSW 10 11 1012.3 - 12.0 - - 10 - - - -
28/04:00am 8.0 W 12 16 1011.4 - 12.0 - - 10 - - - -
28/03:30am 8.4 W 12 15 1010.6 - 12.0 - - 10 - - - -
28/03:00am 10.0 WNW 14 18 1010.1 - 12.0 - - 9 - - - -
28/02:30am 10.6 WNW 18 23 1009.9 - 12.0 - Partly cloudy 10 - - - -
28/02:00am 11.2 WNW 20 27 1010.0 - 12.0 - Partly cloudy 10 - - - -
28/01:30am 11.2 WNW 22 28 1009.8 - 12.0 - Partly cloudy 10 - - - -
28/01:00am 11.1 WNW 21 27 1009.7 - 12.0 - Partly cloudy 10 - - - -
28/12:56am 11.1 WNW 22 28 1009.6 - 12.0 - Partly cloudy 10 - - - -
28/12:37am 11.2 WNW 25 31 1009.9 - 11.8 - Partly cloudy 4 - - - -
28/12:30am 11.3 WNW 26 33 1010.0 - 11.4 - Partly cloudy 2 - - - -
28/12:27am 11.3 WNW 25 33 1009.9 - 11.2 - Partly cloudy 2 - - - -
28/12:06am 11.8 NW 31 42 1009.4 - 8.4 - Cloudy 6 - - - -
28/12:00am 11.9 NW 31 42 1009.1 - 8.2 Showers Cloudy 8 - - - -
 
Date/Time
EST
Temp
°C
Wind Pressure Rain since
9am
mm
Weather Cloud Vis
km
Sea
Height
m
Swell
Dir  Spd
kts
Gust
kts
hPa Trend Height
m
Period
s
Dir
27/11:51pm 11.9 NW 28 38 1009.3 - 8.2 - Cloudy 8 - - - -
27/11:30pm 11.6 NW 26 33 1009.6 - 7.8 - Partly cloudy 8 - - - -
27/11:19pm 11.5 NW 24 34 1009.9 - 7.8 - Partly cloudy 9 - - - -
27/11:00pm 11.6 NW 30 37 1010.1 - 7.6 - Partly cloudy 10 - - - -
27/10:39pm 11.6 NW 25 35 1010.8 - 7.6 - Cloudy 8 - - - -
27/10:37pm 11.7 NW 24 35 1010.7 - 7.4 - Cloudy 9 - - - -
27/10:30pm 11.5 NW 25 32 1011.0 - 7.4 - Cloudy 7 - - - -
27/10:26pm 11.5 NW 26 34 1011.0 - 7.4 - Cloudy 6 - - - -
27/10:12pm 11.8 NW 28 35 1011.1 - 7.4 - Cloudy 10 - - - -
27/10:00pm 11.7 NW 27 40 1011.1 - 7.4 - Cloudy 6 - - - -
27/09:36pm 11.3 NW 24 35 1011.6 - 7.2 - Partly cloudy 6 - - - -
27/09:30pm 11.3 WNW 23 31 1011.8 - 7.2 - Cloudy 6 - - - -
27/09:12pm 11.2 NW 23 32 1012.0 - 6.4 - Partly cloudy 6 - - - -
27/09:09pm 11.4 NW 22 31 1012.1 - 5.8 - Partly cloudy 8 - - - -
27/09:00pm 11.0 WNW 22 28 1012.3 - 5.8 Showers Cloudy 7 - - - -
27/08:54pm 10.7 WNW 23 30 1012.4 - 5.8 - Partly cloudy 5 - - - -
27/08:43pm 10.7 WNW 23 28 1012.4 - 5.4 - Partly cloudy 3 - - - -
27/08:30pm 11.0 WNW 22 30 1012.5 - 3.6 - Partly cloudy 5 - - - -
27/08:20pm 11.1 WNW 25 31 1012.5 - 3.4 - Partly cloudy 6 - - - -
27/08:00pm 11.1 NW 26 35 1012.6 - 3.2 - Partly cloudy 10 - - - -
27/07:59pm 11.2 NW 26 35 1012.6 - 3.2 - Partly cloudy 10 - - - -
27/07:45pm 11.1 NW 28 37 1012.3 - 3.2 - Partly cloudy 6 - - - -
27/07:35pm 11.5 NW 25 35 1012.3 - 3.0 - Partly cloudy 9 - - - -
27/07:30pm 11.4 NW 22 30 1012.3 - 3.0 - Partly cloudy 7 - - - -
27/07:00pm 11.3 WNW 19 26 1012.7 - 3.0 - Partly cloudy 10 - - - -
27/06:59pm 11.3 WNW 19 26 1012.7 - 3.0 - Partly cloudy 10 - - - -
27/06:32pm 10.8 WNW 18 24 1012.7 - 2.6 - Partly cloudy 6 - - - -
27/06:30pm 10.8 WNW 19 24 1012.6 - 2.4 - Partly cloudy 7 - - - -
27/06:00pm 11.2 NW 17 22 1012.9 - 2.4 - Cloudy 10 - - - -
27/05:30pm 11.3 NW 19 25 1012.9 - 2.4 - Partly cloudy 10 - - - -
27/05:00pm 11.5 WNW 21 25 1012.5 - 2.4 - Partly cloudy 10 - - - -
27/04:30pm 11.7 WNW 19 25 1012.7 - 2.4 - Partly cloudy 10 - - - -
27/04:28pm 11.5 WNW 19 25 1012.7 - 2.4 - Partly cloudy 10 - - - -
27/04:26pm 11.5 WNW 19 25 1012.8 - 2.4 - Partly cloudy 10 - - - -
27/04:00pm 11.4 WNW 21 29 1012.7 - 1.0 - Partly cloudy 3 - - - -
27/03:58pm 11.4 NW 22 29 1012.7 - 0.6 - Partly cloudy 4 - - - -
27/03:55pm 11.6 NW 22 29 1012.7 - 0.2 - Partly cloudy 6 - - - -
27/03:36pm 12.0 NW 21 31 1012.5 - 0.0 - Partly cloudy 10 - - - -
27/03:30pm 11.9 NW 24 32 1012.4 - 0.0 - Partly cloudy 10 - - - -
27/03:00pm 12.2 NW 23 29 1012.7 - 0.0 - Cloudy 10 - - - -
27/02:30pm 12.6 NW 23 28 1012.8 - 0.0 - Partly cloudy 10 - - - -
27/02:00pm 12.7 NW 20 25 1013.1 - 0.0 - Partly cloudy 10 - - - -
27/01:30pm 12.3 NW 23 29 1013.2 - 0.0 - Partly cloudy 10 - - - -
27/01:00pm 12.3 NW 20 25 1013.9 - 0.0 - Partly cloudy 10 - - - -
27/12:30pm 12.9 NW 19 24 1014.2 - 0.0 - Partly cloudy 10 - - - -
27/12:00pm 11.3 NW 21 27 1014.6 - 0.0 Showers Cloudy 10 - - - -
27/11:30am 12.4 NW 17 23 1015.3 - 0.0 - Partly cloudy 10 - - - -
27/11:00am 12.2 NW 17 21 1015.4 - 0.0 - Partly cloudy 10 - - - -
27/10:34am 12.0 NW 16 23 1015.7 - 0.0 - Partly cloudy 10 - - - -
27/10:30am 12.3 NW 15 21 1015.7 - 0.0 - Partly cloudy 10 - - - -
27/10:15am 11.7 NW 16 21 1015.9 - 0.0 - Partly cloudy 10 - - - -
27/10:00am 11.5 WNW 15 19 1016.1 - 0.0 - Partly cloudy 10 - - - -

Other Formats:

Comma delimited format used in spreadsheet applications
http://www.bom.gov.au/fwo/IDT60701/IDT60701.95960.axf

JavaScript Object Notation format (JSON) in row-major order
http://www.bom.gov.au/fwo/IDT60701/IDT60701.95960.json